createdAt,value
2017-11-04T00:01:57.888Z,82.40
2017-11-04T00:04:24.489Z,82.30
2017-11-04T00:06:52.159Z,82.20
2017-11-04T00:09:19.030Z,82.20
2017-11-04T00:11:45.774Z,82.10
2017-11-04T00:14:13.385Z,82.20
2017-11-04T00:16:40.921Z,82.00
2017-11-04T00:19:07.743Z,82.10
2017-11-04T00:21:35.373Z,82.10
2017-11-04T00:24:04.183Z,81.70
2017-11-04T00:26:30.870Z,81.20
2017-11-04T00:28:58.697Z,80.70
2017-11-04T00:31:26.385Z,80.70
2017-11-04T00:33:53.149Z,80.50
2017-11-04T00:36:20.381Z,80.50
2017-11-04T00:38:47.190Z,80.20
2017-11-04T00:41:16.618Z,80.10
2017-11-04T00:43:44.155Z,80.00
2017-11-04T00:46:11.716Z,79.60
2017-11-04T00:48:38.456Z,79.10
2017-11-04T00:51:05.151Z,78.70
2017-11-04T00:53:34.308Z,78.30
2017-11-04T00:56:04.017Z,78.50
2017-11-04T00:58:31.044Z,78.40
2017-11-04T01:00:58.717Z,78.20
2017-11-04T01:03:26.116Z,77.70
2017-11-04T01:05:52.935Z,77.70
2017-11-04T01:08:19.794Z,77.60
2017-11-04T01:10:46.480Z,77.60
2017-11-04T01:13:12.983Z,77.70
2017-11-04T01:15:39.839Z,77.70
2017-11-04T01:18:07.121Z,77.80
2017-11-04T01:20:33.851Z,77.80
2017-11-04T01:23:00.687Z,78.70
2017-11-04T01:25:27.934Z,78.10
2017-11-04T01:27:55.212Z,78.20
2017-11-04T01:30:22.697Z,78.50
2017-11-04T01:32:49.552Z,78.40
2017-11-04T01:35:16.409Z,78.60
2017-11-04T01:37:43.157Z,78.60
2017-11-04T01:40:11.698Z,78.40
2017-11-04T01:42:38.674Z,78.50
2017-11-04T01:45:05.870Z,78.60
2017-11-04T01:47:32.636Z,78.60
2017-11-04T01:49:59.547Z,79.20
2017-11-04T01:52:26.462Z,78.90
2017-11-04T01:54:53.386Z,78.90
2017-11-04T01:57:20.162Z,78.70
2017-11-04T01:59:46.965Z,79.00
2017-11-04T02:02:14.531Z,79.10
2017-11-04T02:04:41.877Z,79.10
2017-11-04T02:07:08.485Z,79.00
2017-11-04T02:09:35.973Z,79.20
2017-11-04T02:12:02.615Z,79.10
2017-11-04T02:14:29.269Z,79.10
2017-11-04T02:16:55.965Z,79.10
2017-11-04T02:19:22.657Z,79.20
2017-11-04T02:21:49.808Z,79.20
2017-11-04T02:24:16.654Z,79.40
2017-11-04T02:26:43.936Z,79.40
2017-11-04T02:29:10.716Z,79.30
2017-11-04T02:31:37.508Z,79.50
2017-11-04T02:34:04.284Z,79.80
2017-11-04T02:36:30.945Z,79.80
2017-11-04T02:38:57.658Z,80.50
2017-11-04T02:41:24.233Z,79.80
2017-11-04T02:43:51.804Z,80.00
2017-11-04T02:46:18.575Z,80.00
2017-11-04T02:48:45.224Z,80.20
2017-11-04T02:51:12.849Z,80.50
2017-11-04T02:53:39.696Z,80.50
2017-11-04T02:56:06.627Z,80.60
2017-11-04T02:58:33.435Z,80.70
2017-11-04T03:01:00.205Z,80.90
2017-11-04T03:03:28.743Z,80.90
2017-11-04T03:05:55.399Z,81.00
2017-11-04T03:08:22.931Z,81.10
2017-11-04T03:10:50.839Z,81.10
2017-11-04T03:13:17.751Z,81.30
2017-11-04T03:15:45.309Z,81.60
2017-11-04T03:18:12.366Z,81.60
2017-11-04T03:20:39.504Z,81.80
2017-11-04T03:23:07.203Z,81.90
2017-11-04T03:25:33.944Z,82.60
2017-11-04T03:28:02.283Z,82.10
2017-11-04T03:30:29.672Z,82.50
2017-11-04T03:32:56.284Z,82.40
2017-11-04T03:35:24.700Z,82.60
2017-11-04T03:37:52.106Z,82.60
2017-11-04T03:40:19.728Z,82.70
2017-11-04T03:42:47.108Z,82.90
2017-11-04T03:45:14.696Z,83.00
2017-11-04T03:47:41.560Z,83.00
2017-11-04T03:50:08.459Z,83.10
2017-11-04T03:52:36.713Z,83.40
2017-11-04T03:55:04.239Z,83.50
2017-11-04T03:57:30.904Z,83.40
2017-11-04T03:59:58.567Z,83.60
2017-11-04T04:02:26.391Z,83.70
2017-11-04T04:04:53.869Z,83.80
2017-11-04T04:07:20.632Z,83.80
2017-11-04T04:09:47.472Z,83.90
2017-11-04T04:12:16.114Z,83.90
2017-11-04T04:14:43.510Z,83.90
2017-11-04T04:17:10.271Z,83.90
2017-11-04T04:19:36.804Z,84.00
2017-11-04T04:22:03.464Z,84.00
2017-11-04T04:24:30.805Z,84.10
2017-11-04T04:26:57.643Z,85.00
2017-11-04T04:29:24.990Z,84.40
2017-11-04T04:31:51.635Z,84.30
2017-11-04T04:34:19.011Z,84.30
2017-11-04T04:36:47.266Z,84.30
2017-11-04T04:39:21.764Z,85.10
2017-11-04T04:41:48.394Z,84.50
2017-11-04T04:44:15.403Z,84.70
2017-11-04T04:46:42.306Z,84.80
2017-11-04T04:49:09.634Z,85.00
2017-11-04T04:51:36.915Z,85.10
2017-11-04T04:54:03.485Z,85.00
2017-11-04T04:56:30.105Z,85.20
2017-11-04T04:58:57.226Z,85.30
2017-11-04T05:01:24.288Z,85.40
2017-11-04T05:03:50.838Z,85.20
2017-11-04T05:06:17.430Z,85.40
2017-11-04T05:08:44.338Z,85.40
2017-11-04T05:11:13.237Z,85.50
2017-11-04T05:13:39.825Z,85.50
2017-11-04T05:16:06.468Z,85.80
2017-11-04T05:18:33.695Z,85.80
2017-11-04T05:21:00.329Z,85.90
2017-11-04T05:23:28.316Z,85.90
2017-11-04T05:25:55.117Z,86.20
2017-11-04T05:28:21.924Z,86.50
2017-11-04T05:30:50.164Z,87.00
2017-11-04T05:33:17.772Z,87.00
2017-11-04T05:35:44.594Z,87.30
2017-11-04T05:38:12.798Z,87.50
2017-11-04T05:40:39.941Z,87.60
2017-11-04T05:43:06.488Z,87.90
2017-11-04T05:45:33.857Z,88.20
2017-11-04T05:48:00.731Z,88.10
2017-11-04T05:50:28.309Z,88.70
2017-11-04T05:52:55.870Z,89.00
2017-11-04T05:55:22.824Z,88.90
2017-11-04T05:57:49.593Z,89.10
2017-11-04T06:00:17.986Z,89.30
2017-11-04T06:02:44.776Z,89.30
2017-11-04T06:05:11.568Z,89.60
2017-11-04T06:07:38.251Z,89.50
2017-11-04T06:10:04.768Z,89.60
2017-11-04T06:12:31.516Z,89.60
2017-11-04T06:14:58.813Z,89.90
2017-11-04T06:17:26.348Z,89.80
2017-11-04T06:19:52.948Z,90.00
2017-11-04T06:22:19.806Z,90.10
2017-11-04T06:24:46.643Z,90.20
2017-11-04T06:27:13.500Z,90.30
2017-11-04T06:29:41.041Z,90.30
2017-11-04T06:32:07.866Z,90.20
2017-11-04T06:34:35.289Z,90.40
2017-11-04T06:37:01.988Z,90.30
2017-11-04T06:39:29.469Z,90.40
2017-11-04T06:41:58.295Z,90.40
2017-11-04T06:44:27.900Z,90.50
2017-11-04T06:46:55.263Z,90.50
2017-11-04T06:49:22.997Z,90.50
2017-11-04T06:51:50.787Z,90.60
2017-11-04T06:54:17.474Z,90.60
2017-11-04T06:56:44.074Z,90.60
2017-11-04T06:59:11.827Z,90.70
2017-11-04T07:01:39.583Z,90.70
2017-11-04T07:04:06.256Z,90.60
2017-11-04T07:06:34.376Z,90.50
2017-11-04T07:09:02.781Z,90.50
2017-11-04T07:11:29.440Z,90.50
2017-11-04T07:13:58.402Z,90.40
2017-11-04T07:16:26.130Z,90.40
2017-11-04T07:18:53.523Z,90.40
2017-11-04T07:21:21.431Z,90.40
2017-11-04T07:23:49.853Z,90.30
2017-11-04T07:26:17.287Z,90.50
2017-11-04T07:28:45.023Z,90.10
2017-11-04T07:31:14.090Z,90.10
2017-11-04T07:33:41.773Z,90.10
2017-11-04T07:36:09.143Z,90.00
2017-11-04T07:38:36.811Z,90.10
2017-11-04T07:41:06.122Z,90.00
2017-11-04T07:43:32.833Z,90.10
2017-11-04T07:45:59.834Z,90.00
2017-11-04T07:48:26.590Z,90.10
2017-11-04T07:50:54.151Z,90.00
2017-11-04T07:53:20.808Z,90.00
2017-11-04T07:55:47.381Z,89.80
2017-11-04T07:58:14.531Z,89.70
2017-11-04T08:00:41.316Z,89.70
2017-11-04T08:03:08.345Z,89.70
2017-11-04T08:05:36.015Z,89.40
2017-11-04T08:08:03.292Z,89.30
2017-11-04T08:10:29.876Z,89.30
2017-11-04T08:12:56.476Z,89.00
2017-11-04T08:15:24.632Z,88.70
2017-11-04T08:17:54.533Z,88.40
2017-11-04T08:20:21.094Z,88.10
2017-11-04T08:22:48.708Z,87.40
2017-11-04T08:25:15.579Z,87.40
2017-11-04T08:27:42.272Z,87.10
2017-11-04T08:30:12.489Z,86.60
2017-11-04T08:32:40.569Z,85.80
2017-11-04T08:35:07.309Z,85.80
2017-11-04T08:37:34.667Z,84.80
2017-11-04T08:40:02.298Z,84.40
2017-11-04T08:42:28.863Z,84.30
2017-11-04T08:44:55.604Z,84.00
2017-11-04T08:47:22.366Z,83.70
2017-11-04T08:49:49.749Z,83.30
2017-11-04T08:52:16.460Z,83.20
2017-11-04T08:54:43.609Z,83.00
2017-11-04T08:57:10.503Z,82.90
2017-11-04T08:59:37.472Z,82.30
2017-11-04T09:02:04.931Z,81.70
2017-11-04T09:04:32.662Z,81.70
2017-11-04T09:06:59.378Z,81.70
2017-11-04T09:09:26.838Z,81.60
2017-11-04T09:11:54.175Z,80.30
2017-11-04T09:14:21.759Z,80.50
2017-11-04T09:16:48.987Z,80.50
2017-11-04T09:19:15.712Z,80.60
2017-11-04T09:21:42.960Z,78.90
2017-11-04T09:24:10.221Z,78.80
2017-11-04T09:26:37.018Z,78.70
2017-11-04T09:29:06.453Z,78.00
2017-11-04T09:31:34.061Z,78.20
2017-11-04T09:34:01.584Z,78.30
2017-11-04T09:36:28.864Z,78.80
2017-11-04T09:38:56.332Z,79.10
2017-11-04T09:41:24.789Z,78.80
2017-11-04T09:43:52.503Z,78.70
2017-11-04T09:46:19.180Z,78.60
2017-11-04T09:48:45.836Z,77.90
2017-11-04T09:51:14.504Z,77.10
2017-11-04T09:53:42.347Z,77.30
2017-11-04T09:56:09.181Z,77.00
2017-11-04T09:58:37.756Z,76.90
2017-11-04T10:01:05.435Z,76.10
2017-11-04T10:03:32.315Z,75.90
2017-11-04T10:05:59.442Z,75.50
2017-11-04T10:08:26.284Z,75.50
2017-11-04T10:10:53.087Z,75.70
2017-11-04T10:13:19.834Z,75.50
2017-11-04T10:15:47.372Z,74.90
2017-11-04T10:18:15.188Z,74.70
2017-11-04T10:20:43.088Z,74.40
2017-11-04T10:23:12.163Z,73.20
2017-11-04T10:25:41.908Z,73.20
2017-11-04T10:28:09.988Z,71.90
2017-11-04T10:30:38.961Z,71.20
2017-11-04T10:33:05.888Z,71.60
2017-11-04T10:35:33.457Z,72.00
2017-11-04T10:38:00.292Z,71.40
2017-11-04T10:40:28.302Z,71.60
2017-11-04T10:42:55.831Z,71.60
2017-11-04T10:45:26.470Z,71.30
2017-11-04T10:48:01.531Z,71.50
2017-11-04T10:50:28.108Z,71.50
2017-11-04T10:52:54.772Z,71.40
2017-11-04T10:55:21.507Z,71.50
2017-11-04T10:57:48.287Z,70.80
2017-11-04T11:00:15.688Z,70.30
2017-11-04T11:02:42.439Z,70.30
2017-11-04T11:05:09.194Z,70.10
2017-11-04T11:07:35.941Z,70.60
2017-11-04T11:10:02.676Z,70.60
2017-11-04T11:12:29.393Z,70.80
2017-11-04T11:14:56.230Z,69.70
2017-11-04T11:17:23.258Z,69.00
2017-11-04T11:19:49.917Z,68.20
2017-11-04T11:22:17.516Z,68.10
2017-11-04T11:24:44.268Z,68.10
2017-11-04T11:27:11.530Z,67.30
2017-11-04T11:29:39.865Z,67.90
2017-11-04T11:32:06.429Z,67.90
2017-11-04T11:34:33.171Z,67.10
2017-11-04T11:37:01.015Z,66.60
2017-11-04T11:39:28.352Z,65.20
2017-11-04T11:41:54.904Z,65.10
2017-11-04T11:44:21.799Z,65.30
2017-11-04T11:46:48.355Z,66.20
2017-11-04T11:49:15.719Z,68.00
2017-11-04T11:51:42.491Z,68.00
2017-11-04T11:54:09.769Z,67.80
2017-11-04T11:56:36.868Z,67.80
2017-11-04T11:59:03.538Z,68.10
2017-11-04T12:01:30.537Z,68.20
2017-11-04T12:03:57.336Z,68.10
2017-11-04T12:06:25.009Z,67.50
2017-11-04T12:08:51.750Z,67.30
2017-11-04T12:11:18.570Z,67.20
2017-11-04T12:13:45.593Z,67.60
2017-11-04T12:16:12.395Z,67.70
2017-11-04T12:18:39.718Z,67.10
2017-11-04T12:21:07.217Z,66.80
2017-11-04T12:23:33.995Z,66.80
2017-11-04T12:26:00.544Z,66.80
2017-11-04T12:28:27.145Z,66.90
2017-11-04T12:30:53.912Z,67.20
2017-11-04T12:33:20.673Z,67.00
2017-11-04T12:35:47.335Z,66.00
2017-11-04T12:38:14.789Z,65.90
2017-11-04T12:40:41.643Z,65.20
2017-11-04T12:43:08.419Z,64.80
2017-11-04T12:45:36.368Z,64.20
2017-11-04T12:48:04.755Z,65.00
2017-11-04T12:50:31.544Z,64.80
2017-11-04T12:52:58.340Z,65.00
2017-11-04T12:55:25.616Z,65.60
2017-11-04T12:57:52.264Z,65.60
2017-11-04T13:00:19.177Z,64.80
2017-11-04T13:02:45.948Z,65.70
2017-11-04T13:05:12.727Z,66.00
2017-11-04T13:07:39.566Z,66.80
2017-11-04T13:10:07.624Z,67.50
2017-11-04T13:12:38.126Z,67.30
2017-11-04T13:15:05.068Z,67.30
2017-11-04T13:17:33.911Z,67.70
2017-11-04T13:20:02.697Z,67.30
2017-11-04T13:22:29.640Z,66.60
2017-11-04T13:24:56.833Z,66.70
2017-11-04T13:27:23.522Z,67.40
2017-11-04T13:29:50.200Z,67.30
2017-11-04T13:32:16.908Z,67.30
2017-11-04T13:34:44.431Z,67.50
2017-11-04T13:37:11.279Z,67.50
2017-11-04T13:39:38.141Z,68.00
2017-11-04T13:42:05.802Z,68.40
2017-11-04T13:44:32.451Z,68.40
2017-11-04T13:46:59.371Z,68.80
2017-11-04T13:49:26.192Z,69.30
2017-11-04T13:51:53.022Z,69.30
2017-11-04T13:54:20.491Z,69.70
2017-11-04T13:56:47.284Z,69.60
2017-11-04T13:59:14.872Z,70.20
2017-11-04T14:01:41.537Z,70.20
2017-11-04T14:04:08.360Z,70.40
2017-11-04T14:06:35.648Z,70.40
2017-11-04T14:09:04.625Z,70.50
2017-11-04T14:11:36.012Z,70.60
2017-11-04T14:14:03.419Z,70.50
2017-11-04T14:16:31.430Z,69.10
2017-11-04T14:19:01.335Z,67.70
2017-11-04T14:21:28.427Z,66.00
2017-11-04T14:23:56.616Z,65.30
2017-11-04T14:26:23.812Z,65.90
2017-11-04T14:28:52.258Z,66.70
2017-11-04T14:31:21.339Z,67.70
2017-11-04T14:33:50.553Z,67.70
2017-11-04T14:36:19.122Z,68.10
2017-11-04T14:38:47.629Z,68.80
2017-11-04T14:41:18.246Z,69.90
2017-11-04T14:43:46.205Z,69.90
2017-11-04T14:46:12.948Z,70.70
2017-11-04T14:48:39.941Z,71.50
2017-11-04T14:51:07.303Z,72.30
2017-11-04T14:53:34.112Z,73.00
2017-11-04T14:56:01.095Z,73.40
2017-11-04T14:58:27.800Z,74.00
2017-11-04T15:00:54.750Z,74.80
2017-11-04T15:03:23.742Z,75.40
2017-11-04T15:05:51.201Z,76.00
2017-11-04T15:08:18.937Z,76.60
2017-11-04T15:10:45.411Z,76.90
2017-11-04T15:13:12.149Z,77.30
2017-11-04T15:15:39.816Z,77.40
2017-11-04T15:18:06.613Z,77.80
2017-11-04T15:20:33.529Z,77.90
2017-11-04T15:23:00.363Z,78.30
2017-11-04T15:25:27.004Z,79.70
2017-11-04T15:27:53.985Z,79.90
2017-11-04T15:30:21.021Z,80.20
2017-11-04T15:32:47.698Z,80.70
2017-11-04T15:35:15.333Z,81.50
2017-11-04T15:37:43.999Z,82.00
2017-11-04T15:40:12.051Z,82.00
2017-11-04T15:42:40.080Z,82.60
2017-11-04T15:45:11.645Z,82.50
2017-11-04T15:47:39.391Z,82.70
2017-11-04T15:50:08.421Z,82.70
2017-11-04T15:52:35.923Z,82.70
2017-11-04T15:55:05.059Z,83.00
2017-11-04T15:57:33.002Z,83.00
2017-11-04T16:00:06.002Z,83.00
2017-11-04T16:02:33.385Z,83.30
2017-11-04T16:05:00.066Z,83.30
2017-11-04T16:07:26.884Z,83.50
2017-11-04T16:09:54.366Z,84.50
2017-11-04T16:12:21.032Z,84.50
2017-11-04T16:14:47.954Z,84.90
2017-11-04T16:17:14.566Z,85.10
2017-11-04T16:19:41.266Z,85.20
2017-11-04T16:22:07.867Z,85.20
2017-11-04T16:24:34.586Z,85.50
2017-11-04T16:27:01.295Z,85.70
2017-11-04T16:29:27.897Z,86.10
2017-11-04T16:31:55.226Z,86.20
2017-11-04T16:34:24.842Z,86.10
2017-11-04T16:36:51.964Z,86.20
2017-11-04T16:39:18.810Z,86.50
2017-11-04T16:41:48.412Z,86.60
2017-11-04T16:44:16.945Z,86.60
2017-11-04T16:46:44.924Z,86.80
2017-11-04T16:49:12.252Z,86.70
2017-11-04T16:51:40.603Z,86.20
2017-11-04T16:54:07.843Z,86.20
2017-11-04T16:56:38.158Z,85.70
2017-11-04T16:59:11.613Z,85.70
2017-11-04T17:01:40.510Z,85.70
2017-11-04T17:04:08.472Z,85.80
2017-11-04T17:06:36.899Z,85.80
2017-11-04T17:09:04.702Z,85.70
2017-11-04T17:11:32.309Z,86.00
2017-11-04T17:13:59.033Z,86.00
2017-11-04T17:16:26.543Z,86.60
2017-11-04T17:18:54.291Z,86.60
2017-11-04T17:21:20.921Z,86.50
2017-11-04T17:23:47.761Z,86.70
2017-11-04T17:26:15.149Z,86.40
2017-11-04T17:28:41.803Z,86.40
2017-11-04T17:31:08.891Z,86.30
2017-11-04T17:33:36.684Z,86.30
2017-11-04T17:36:04.139Z,86.20
2017-11-04T17:38:30.873Z,86.20
2017-11-04T17:40:57.569Z,86.50
2017-11-04T17:43:24.364Z,86.30
2017-11-04T17:45:52.114Z,86.10
2017-11-04T17:48:21.382Z,85.80
2017-11-04T17:50:50.011Z,85.80
2017-11-04T17:53:21.130Z,85.80
2017-11-04T17:55:48.655Z,86.40
2017-11-04T17:58:16.865Z,86.30
2017-11-04T18:00:44.988Z,86.30
2017-11-04T18:03:12.268Z,86.30
2017-11-04T18:05:40.665Z,86.40
2017-11-04T18:08:08.245Z,86.80
2017-11-04T18:10:35.965Z,86.80
2017-11-04T18:13:02.658Z,86.90
2017-11-04T18:15:32.637Z,86.60
2017-11-04T18:17:59.181Z,86.60
2017-11-04T18:20:26.253Z,86.40
2017-11-04T18:22:52.977Z,86.20
2017-11-04T18:25:20.275Z,86.20
2017-11-04T18:27:47.056Z,86.00
2017-11-04T18:30:14.001Z,85.90
2017-11-04T18:32:40.882Z,86.10
2017-11-04T18:35:07.579Z,86.00
2017-11-04T18:37:34.443Z,86.10
2017-11-04T18:40:01.305Z,86.30
2017-11-04T18:42:30.847Z,86.50
2017-11-04T18:44:57.524Z,86.60
2017-11-04T18:47:25.881Z,86.70
2017-11-04T18:49:53.643Z,86.80
2017-11-04T18:52:22.355Z,86.80
2017-11-04T18:54:49.490Z,87.00
2017-11-04T18:57:17.293Z,87.20
2017-11-04T18:59:44.730Z,87.10
2017-11-04T19:02:12.265Z,87.00
2017-11-04T19:04:40.314Z,86.90
2017-11-04T19:07:09.134Z,86.90
2017-11-04T19:09:37.128Z,86.90
2017-11-04T19:12:03.944Z,87.00
2017-11-04T19:14:30.865Z,87.10
2017-11-04T19:16:57.736Z,87.30
2017-11-04T19:19:24.980Z,87.20
2017-11-04T19:21:51.822Z,87.20
2017-11-04T19:24:18.523Z,87.30
2017-11-04T19:26:46.079Z,87.60
2017-11-04T19:29:12.706Z,87.50
2017-11-04T19:31:39.493Z,87.60
2017-11-04T19:34:06.910Z,88.00
2017-11-04T19:36:33.710Z,88.00
2017-11-04T19:39:00.873Z,87.90
2017-11-04T19:41:27.844Z,87.70
2017-11-04T19:43:54.480Z,88.20
2017-11-04T19:46:21.788Z,87.30
2017-11-04T19:48:48.817Z,87.50
2017-11-04T19:51:16.180Z,87.60
2017-11-04T19:53:43.024Z,87.60
2017-11-04T19:56:09.784Z,87.80
2017-11-04T19:58:36.538Z,87.90
2017-11-04T20:01:03.491Z,87.90
2017-11-04T20:03:31.434Z,88.10
2017-11-04T20:05:59.931Z,88.30
2017-11-04T20:08:26.642Z,88.30
2017-11-04T20:10:54.147Z,88.50
2017-11-04T20:13:20.944Z,88.40
2017-11-04T20:15:48.048Z,88.50
2017-11-04T20:18:14.861Z,88.60
2017-11-04T20:20:42.210Z,88.40
2017-11-04T20:23:09.179Z,88.30
2017-11-04T20:25:36.341Z,88.40
2017-11-04T20:28:03.855Z,88.10
2017-11-04T20:30:31.938Z,88.00
2017-11-04T20:33:00.597Z,88.20
2017-11-04T20:35:28.625Z,88.10
2017-11-04T20:37:55.424Z,88.10
2017-11-04T20:40:23.077Z,88.40
2017-11-04T20:42:51.064Z,88.70
2017-11-04T20:45:17.867Z,88.70
2017-11-04T20:47:44.729Z,88.70
2017-11-04T20:50:11.704Z,88.90
2017-11-04T20:52:38.578Z,88.80
2017-11-04T20:55:06.179Z,89.00
2017-11-04T20:57:33.868Z,88.90
2017-11-04T21:00:01.641Z,89.00
2017-11-04T21:02:29.265Z,89.00
2017-11-04T21:04:56.169Z,89.20
2017-11-04T21:07:26.229Z,89.00
2017-11-04T21:09:53.722Z,89.00
2017-11-04T21:12:20.689Z,88.80
2017-11-04T21:14:48.021Z,89.20
2017-11-04T21:17:15.090Z,89.40
2017-11-04T21:19:43.439Z,89.20
2017-11-04T21:22:10.548Z,89.30
2017-11-04T21:24:38.112Z,89.20
2017-11-04T21:27:07.821Z,89.20
2017-11-04T21:29:35.430Z,89.40
2017-11-04T21:32:02.346Z,89.60
2017-11-04T21:34:29.178Z,89.50
2017-11-04T21:36:55.993Z,89.50
2017-11-04T21:39:22.999Z,89.70
2017-11-04T21:41:50.188Z,89.70
2017-11-04T21:44:16.964Z,89.70
2017-11-04T21:46:43.586Z,89.60
2017-11-04T21:49:10.295Z,89.70
2017-11-04T21:51:36.889Z,90.00
2017-11-04T21:54:03.500Z,90.00
2017-11-04T21:56:30.243Z,90.00
2017-11-04T21:58:56.956Z,90.00
2017-11-04T22:01:23.772Z,90.00
2017-11-04T22:03:50.404Z,90.10
2017-11-04T22:06:17.242Z,90.00
2017-11-04T22:08:43.975Z,90.10
2017-11-04T22:11:10.578Z,90.10
2017-11-04T22:13:37.245Z,90.10
2017-11-04T22:16:03.993Z,90.10
2017-11-04T22:18:30.672Z,90.10
2017-11-04T22:20:57.479Z,90.20
2017-11-04T22:23:24.280Z,90.20
2017-11-04T22:25:52.027Z,90.30
2017-11-04T22:28:21.172Z,90.30
2017-11-04T22:30:47.831Z,90.20
2017-11-04T22:33:15.760Z,90.30
2017-11-04T22:35:42.577Z,90.30
2017-11-04T22:38:09.514Z,90.20
2017-11-04T22:40:36.236Z,90.30
2017-11-04T22:43:02.943Z,90.10
2017-11-04T22:45:29.667Z,90.10
2017-11-04T22:47:57.139Z,89.90
2017-11-04T22:50:24.683Z,89.80
2017-11-04T22:52:52.696Z,89.50
2017-11-04T22:55:19.644Z,89.40
2017-11-04T22:57:46.808Z,89.00
2017-11-04T23:00:13.806Z,88.80
2017-11-04T23:02:40.488Z,88.70
2017-11-04T23:05:07.027Z,88.60
2017-11-04T23:07:35.351Z,88.60
2017-11-04T23:10:03.437Z,88.40
2017-11-04T23:12:30.129Z,89.00
2017-11-04T23:14:58.775Z,88.30
2017-11-04T23:17:27.062Z,88.10
2017-11-04T23:19:54.382Z,88.20
2017-11-04T23:22:21.829Z,88.10
2017-11-04T23:24:49.467Z,88.10
2017-11-04T23:27:16.373Z,87.90
2017-11-04T23:29:43.133Z,87.80
2017-11-04T23:32:09.874Z,87.90
2017-11-04T23:34:36.746Z,87.80
2017-11-04T23:37:03.652Z,87.70
2017-11-04T23:39:30.374Z,87.70
2017-11-04T23:41:57.219Z,87.60
2017-11-04T23:44:24.398Z,87.50
2017-11-04T23:46:51.817Z,87.60
2017-11-04T23:49:19.159Z,87.50
2017-11-04T23:51:48.042Z,87.50
2017-11-04T23:54:14.899Z,87.40
2017-11-04T23:56:44.833Z,87.90
2017-11-04T23:59:11.744Z,87.30
